Time;durP1;ratioP1;P1;durP2;ratioP2;P2;SDS_P1;SDS_P2;PMS_P1;PMS_P2;Temp;Humidity;BMP_temperature;BMP_pressure;BME280_temperature;BME280_humidity;BME280_pressure;Samples;Min_cycle;Max_cycle;Signal;HPM_P1;HPM_P2
2024/03/18 00:02:19;;;;;;;11.68;8.15;;;;;;;13.91;79.50;99956.19;5095305;28;20795;-63
2024/03/18 00:04:44;;;;;;;9.52;6.60;;;;;;;13.99;78.65;99958.78;5095012;28;20121;-64
2024/03/18 00:07:10;;;;;;;8.85;6.75;;;;;;;13.99;78.27;99963.28;5095980;28;20038;-63
2024/03/18 00:09:38;;;;;;;10.77;7.15;;;;;;;13.96;78.37;99953.81;5096329;28;20036;-64
2024/03/18 00:12:04;;;;;;;12.95;7.40;;;;;;;14.00;78.20;99949.78;5098828;28;20043;-64
2024/03/18 00:14:29;;;;;;;9.20;6.72;;;;;;;14.06;77.69;99953.56;5098346;28;20349;-63
2024/03/18 00:16:55;;;;;;;11.25;7.38;;;;;;;14.08;77.12;99943.56;5098910;28;20032;-65
2024/03/18 00:19:24;;;;;;;10.65;6.85;;;;;;;14.10;76.97;99946.88;5099333;28;20039;-64
2024/03/18 00:21:49;;;;;;;9.75;6.82;;;;;;;14.06;76.89;99948.25;5100689;28;20268;-64
2024/03/18 00:24:15;;;;;;;8.80;6.35;;;;;;;14.06;76.96;99942.91;5099544;28;20040;-63
2024/03/18 00:26:40;;;;;;;9.02;6.13;;;;;;;13.96;77.14;99942.34;5098346;28;20035;-64
2024/03/18 00:29:06;;;;;;;9.48;6.50;;;;;;;13.99;76.78;99940.16;5100329;28;20032;-64
2024/03/18 00:31:31;;;;;;;8.32;5.68;;;;;;;13.98;76.53;99937.66;5098458;28;20330;-64
2024/03/18 00:33:57;;;;;;;7.97;5.28;;;;;;;13.95;76.19;99938.03;5100124;28;20038;-63
2024/03/18 00:36:23;;;;;;;8.68;5.93;;;;;;;13.97;76.37;99934.19;5097816;28;20337;-63
2024/03/18 00:38:50;;;;;;;9.93;6.88;;;;;;;14.01;76.30;99934.66;5098978;28;20039;-63
2024/03/18 00:44:02;;;;;;;7.38;5.22;;;;;;;14.01;75.56;99935.47;5099619;28;20280;-66
2024/03/18 00:46:28;;;;;;;6.40;4.90;;;;;;;13.80;75.47;99919.34;5098171;28;20031;-64
2024/03/18 00:48:53;;;;;;;8.68;6.15;;;;;;;13.78;76.29;99928.50;5099179;28;20154;-63
2024/03/18 00:51:19;;;;;;;7.93;5.75;;;;;;;13.50;77.60;99921.03;5098959;28;20338;-63
2024/03/18 00:53:44;;;;;;;7.72;5.97;;;;;;;13.34;78.40;99913.16;5099021;28;20131;-65
2024/03/18 00:56:10;;;;;;;8.05;6.15;;;;;;;13.30;78.41;99920.66;5098368;28;20043;-64
2024/03/18 00:58:36;;;;;;;7.03;4.90;;;;;;;13.28;78.63;99919.19;5098686;28;20352;-63
2024/03/18 01:01:02;;;;;;;9.32;6.00;;;;;;;13.18;78.22;99914.06;5097285;28;20063;-63
2024/03/18 01:03:29;;;;;;;9.43;6.07;;;;;;;13.11;77.99;99918.41;5098897;28;20028;-63
2024/03/18 01:05:54;;;;;;;9.73;6.07;;;;;;;13.18;77.76;99918.56;5099318;28;20203;-63
2024/03/18 01:08:20;;;;;;;8.23;5.97;;;;;;;13.16;77.32;99924.03;5097075;28;20097;-63
2024/03/18 01:10:45;;;;;;;9.85;7.07;;;;;;;13.25;76.61;99927.50;5099102;28;20031;-64
2024/03/18 01:13:13;;;;;;;8.50;6.60;;;;;;;13.32;76.01;99920.47;5097859;28;20348;-64
2024/03/18 01:15:39;;;;;;;12.05;8.00;;;;;;;13.11;76.38;99919.22;5098967;28;20062;-65
2024/03/18 01:18:07;;;;;;;10.70;8.00;;;;;;;13.10;76.26;99914.91;5097189;28;20337;-63
2024/03/18 01:20:33;;;;;;;11.50;7.22;;;;;;;13.08;76.73;99919.59;5098026;28;20056;-63
2024/03/18 01:22:59;;;;;;;11.07;7.75;;;;;;;13.03;77.17;99921.09;5097742;28;20112;-63
2024/03/18 01:25:27;;;;;;;9.32;7.22;;;;;;;12.83;78.50;99912.72;5098396;28;20051;-63
2024/03/18 01:27:52;;;;;;;11.60;7.25;;;;;;;12.47;79.82;99921.09;5098059;28;20337;-63
2024/03/18 01:30:18;;;;;;;13.45;7.57;;;;;;;12.62;79.32;99915.13;5097992;28;20043;-64
2024/03/18 01:32:43;;;;;;;10.25;7.43;;;;;;;12.44;80.28;99912.66;5098163;28;20035;-63
2024/03/18 01:35:12;;;;;;;11.60;8.10;;;;;;;12.55;79.70;99922.94;5098032;28;20028;-65
2024/03/18 01:37:38;;;;;;;12.55;7.55;;;;;;;12.61;79.12;99916.13;5096546;28;20055;-65
2024/03/18 01:40:09;;;;;;;10.93;7.53;;;;;;;12.61;78.90;99916.13;5098360;28;20242;-63
2024/03/18 01:42:34;;;;;;;11.38;7.72;;;;;;;12.77;77.83;99908.09;5096733;28;20055;-63
2024/03/18 01:45:00;;;;;;;11.05;7.43;;;;;;;12.70;77.87;99909.78;5097674;28;20028;-63
2024/03/18 01:47:26;;;;;;;11.00;7.68;;;;;;;12.71;77.46;99904.28;5097087;28;20099;-66
2024/03/18 01:49:52;;;;;;;12.57;8.43;;;;;;;12.50;78.36;99906.69;5097104;28;20043;-65
2024/03/18 01:52:21;;;;;;;11.98;8.48;;;;;;;12.61;77.91;99903.66;5097674;28;20413;-63
2024/03/18 01:54:48;;;;;;;12.90;8.50;;;;;;;12.68;77.46;99909.13;5097699;28;20109;-63
2024/03/18 01:57:16;;;;;;;10.55;7.57;;;;;;;12.65;77.35;99912.94;5097198;28;20028;-63
2024/03/18 01:59:42;;;;;;;13.43;9.13;;;;;;;12.68;77.43;99906.47;5097536;28;20069;-63
2024/03/18 02:02:08;;;;;;;13.98;8.90;;;;;;;12.65;77.31;99910.28;5097587;28;20048;-63
2024/03/18 02:04:34;;;;;;;10.93;8.57;;;;;;;12.62;77.92;99910.63;5097149;28;20051;-63
2024/03/18 02:07:00;;;;;;;12.30;8.55;;;;;;;12.60;77.56;99906.50;5095693;28;20028;-63
2024/03/18 02:09:27;;;;;;;11.20;8.25;;;;;;;12.63;78.26;99906.16;5096773;28;20138;-66
2024/03/18 02:11:55;;;;;;;13.05;8.77;;;;;;;12.65;77.47;99904.97;5098118;28;20035;-63
2024/03/18 02:14:21;;;;;;;13.30;9.02;;;;;;;12.65;77.87;99904.16;5096642;28;20055;-63
2024/03/18 02:16:47;;;;;;;11.70;8.25;;;;;;;12.61;77.33;99900.19;5098222;28;20274;-64
2024/03/18 02:19:12;;;;;;;14.30;9.20;;;;;;;12.63;77.75;99896.34;5095937;28;20040;-65
2024/03/18 02:21:38;;;;;;;13.52;8.70;;;;;;;12.62;77.68;99905.31;5097074;28;20039;-66
2024/03/18 02:24:06;;;;;;;12.82;8.85;;;;;;;12.61;77.91;99897.53;5096142;28;20039;-63
2024/03/18 02:26:33;;;;;;;11.98;8.68;;;;;;;12.62;77.19;99897.34;5096914;28;20036;-63
2024/03/18 02:28:59;;;;;;;12.57;9.00;;;;;;;12.56;77.05;99902.53;5096704;28;20273;-63
2024/03/18 02:31:24;;;;;;;11.48;8.13;;;;;;;12.49;77.43;99897.06;5096807;28;20672;-63
2024/03/18 02:33:50;;;;;;;15.07;9.77;;;;;;;12.36;77.49;99897.56;5094994;28;20028;-63
2024/03/18 02:36:16;;;;;;;14.65;9.63;;;;;;;12.33;78.28;99891.78;5096305;28;20040;-63
2024/03/18 02:38:41;;;;;;;13.30;8.82;;;;;;;12.29;78.40;99891.28;5096861;28;20261;-63
2024/03/18 02:41:07;;;;;;;15.32;8.98;;;;;;;12.23;78.82;99894.59;5096527;28;20356;-65
2024/03/18 02:43:33;;;;;;;15.30;9.75;;;;;;;12.20;78.79;99884.34;5095861;28;20036;-63
2024/03/18 02:45:59;;;;;;;16.98;9.50;;;;;;;12.30;78.33;99892.09;5096783;28;20111;-63
2024/03/18 02:48:25;;;;;;;13.52;8.50;;;;;;;12.32;78.27;99887.47;5097171;28;20114;-63
2024/03/18 02:50:51;;;;;;;13.23;9.65;;;;;;;12.29;77.97;99893.94;5095933;28;20036;-65
2024/03/18 02:53:17;;;;;;;11.82;8.25;;;;;;;12.36;77.19;99886.13;5097516;28;20344;-65
2024/03/18 02:55:42;;;;;;;12.75;8.18;;;;;;;12.31;77.35;99899.06;5094747;28;20043;-63
2024/03/18 02:58:08;;;;;;;12.55;8.63;;;;;;;12.37;77.01;99901.88;5097107;28;20047;-63
2024/03/18 03:00:34;;;;;;;12.10;8.50;;;;;;;12.44;76.08;99897.53;5095642;28;20039;-63
2024/03/18 03:02:59;;;;;;;10.40;7.47;;;;;;;12.42;76.27;99888.91;5095623;28;20294;-63
2024/03/18 03:05:25;;;;;;;13.43;8.70;;;;;;;12.52;75.40;99890.59;5096522;28;20032;-63
2024/03/18 03:07:50;;;;;;;11.15;8.45;;;;;;;12.28;75.90;99899.41;5096045;28;20046;-63
2024/03/18 03:10:16;;;;;;;11.80;9.18;;;;;;;12.32;76.67;99906.88;5096630;28;20355;-65
2024/03/18 03:12:41;;;;;;;13.15;9.93;;;;;;;12.22;76.73;99903.56;5095920;28;20066;-65
2024/03/18 03:15:08;;;;;;;11.77;8.70;;;;;;;12.19;76.77;99901.25;5096006;28;20028;-63
2024/03/18 03:17:34;;;;;;;31.15;10.13;;;;;;;12.32;75.85;99901.56;5095471;28;20055;-64
2024/03/18 03:20:00;;;;;;;13.32;8.90;;;;;;;12.33;75.71;99908.53;5094890;28;20230;-63
2024/03/18 03:22:25;;;;;;;14.38;9.43;;;;;;;12.24;76.09;99906.06;5096036;28;20082;-65
2024/03/18 03:24:51;;;;;;;16.67;9.00;;;;;;;12.28;76.08;99907.38;5096789;28;20314;-63
2024/03/18 03:27:17;;;;;;;11.93;8.70;;;;;;;12.23;75.92;99915.03;5095867;28;20051;-63
2024/03/18 03:29:43;;;;;;;12.98;8.70;;;;;;;12.25;75.05;99908.53;5096727;28;20039;-63
2024/03/18 03:32:14;;;;;;;14.45;9.32;;;;;;;12.17;75.19;99913.03;5095156;28;20213;-63
2024/03/18 03:34:39;;;;;;;14.60;8.60;;;;;;;12.08;76.33;99913.06;5097059;28;20028;-63
2024/03/18 03:37:07;;;;;;;13.30;9.13;;;;;;;12.09;75.89;99909.41;5093663;28;20226;-63
2024/03/18 03:39:33;;;;;;;13.02;8.82;;;;;;;12.18;75.19;99904.91;5096736;28;20044;-63
2024/03/18 03:41:58;;;;;;;13.80;9.20;;;;;;;12.16;74.75;99896.28;5096318;28;20040;-65
2024/03/18 03:44:24;;;;;;;11.57;7.85;;;;;;;12.19;74.38;99897.78;5098845;28;20032;-65
2024/03/18 03:46:50;;;;;;;11.93;8.57;;;;;;;12.27;73.67;99903.06;5100072;28;20032;-63
2024/03/18 03:49:17;;;;;;;12.55;8.30;;;;;;;12.35;73.12;99901.22;5100208;28;20039;-63
2024/03/18 03:51:42;;;;;;;12.15;8.52;;;;;;;12.42;72.82;99898.72;5099648;28;20108;-63
2024/03/18 03:54:09;;;;;;;12.32;8.23;;;;;;;12.39;72.65;99889.25;5099494;28;20221;-64
2024/03/18 03:56:34;;;;;;;13.75;8.18;;;;;;;12.47;71.52;99899.88;5100046;28;20047;-63
2024/03/18 03:59:00;;;;;;;14.35;8.50;;;;;;;12.33;70.99;99897.91;5099232;28;20251;-63
2024/03/18 04:01:26;;;;;;;12.88;8.50;;;;;;;12.28;71.29;99899.41;5100431;28;20103;-65
2024/03/18 04:03:52;;;;;;;15.10;8.60;;;;;;;12.31;71.15;99904.38;5097758;28;20225;-63
2024/03/18 04:06:17;;;;;;;14.73;7.82;;;;;;;12.36;70.61;99899.41;5100622;28;20058;-63
2024/03/18 04:08:43;;;;;;;12.65;8.70;;;;;;;12.37;70.88;99895.75;5098846;28;20040;-63
2024/03/18 04:11:08;;;;;;;13.85;8.07;;;;;;;12.31;70.91;99888.44;5100284;28;20043;-63
2024/03/18 04:13:34;;;;;;;14.85;9.85;;;;;;;12.28;69.82;99886.13;5099086;28;20035;-65
2024/03/18 04:15:59;;;;;;;16.52;9.32;;;;;;;12.06;70.26;99879.72;5099976;28;20032;-65
2024/03/18 04:18:25;;;;;;;13.23;8.75;;;;;;;12.04;70.62;99885.19;5099381;28;20078;-63
2024/03/18 04:20:51;;;;;;;11.00;7.53;;;;;;;11.97;70.66;99884.19;5098215;28;20116;-63
2024/03/18 04:23:17;;;;;;;12.65;7.45;;;;;;;11.91;71.29;99884.88;5099047;28;20036;-63
2024/03/18 04:25:42;;;;;;;11.50;7.22;;;;;;;11.75;71.67;99890.97;5099187;28;20345;-63
2024/03/18 04:28:08;;;;;;;11.07;6.97;;;;;;;11.81;71.14;99892.16;5099622;28;20039;-63
2024/03/18 04:30:35;;;;;;;11.18;7.32;;;;;;;11.78;71.58;99887.19;5099061;28;20028;-63
2024/03/18 04:33:01;;;;;;;9.98;6.05;;;;;;;11.73;71.53;99886.84;5099750;28;20234;-63
2024/03/18 04:35:26;;;;;;;10.82;6.85;;;;;;;11.77;71.32;99885.50;5099013;28;20035;-64
2024/03/18 04:37:54;;;;;;;10.07;7.32;;;;;;;11.76;71.44;99887.34;5100233;28;20036;-65
2024/03/18 04:40:21;;;;;;;12.45;8.75;;;;;;;11.82;71.90;99885.88;5097925;28;20043;-63
2024/03/18 04:42:47;;;;;;;13.95;8.57;;;;;;;11.59;72.45;99885.66;5099345;28;20040;-64
2024/03/18 04:45:20;;;;;;;14.43;8.35;;;;;;;11.70;72.34;99888.00;5097911;28;20035;-64
2024/03/18 04:47:50;;;;;;;14.70;8.27;;;;;;;11.52;71.74;99843.06;5099175;28;20024;-66
2024/03/18 04:50:19;;;;;;;11.93;7.90;;;;;;;11.82;71.62;99901.78;5097841;28;20028;-65
2024/03/18 04:52:45;;;;;;;12.55;7.80;;;;;;;11.69;71.60;99873.06;5099548;28;20095;-63
2024/03/18 04:55:11;;;;;;;14.98;8.10;;;;;;;11.95;71.14;99890.66;5097721;28;20043;-64
2024/03/18 04:57:37;;;;;;;17.63;8.90;;;;;;;12.04;70.38;99902.94;5099314;28;20043;-63
2024/03/18 05:00:06;;;;;;;12.95;7.70;;;;;;;12.12;70.61;99900.28;5097697;28;20039;-63
2024/03/18 05:02:32;;;;;;;10.90;7.57;;;;;;;12.06;69.84;99899.13;5095546;28;20366;-63
2024/03/18 05:04:57;;;;;;;13.35;8.93;;;;;;;12.01;70.55;99893.47;5087711;28;20221;-63
2024/03/18 05:07:23;;;;;;;12.73;8.85;;;;;;;11.87;70.91;99907.44;5090046;28;20032;-63
2024/03/18 05:09:53;;;;;;;14.43;8.70;;;;;;;11.83;70.72;99898.97;5093691;28;20154;-65
2024/03/18 05:12:19;;;;;;;16.15;8.68;;;;;;;11.74;72.18;99902.59;5098109;28;20061;-63
2024/03/18 05:14:44;;;;;;;17.23;10.40;;;;;;;11.59;72.53;99904.25;5096826;28;20032;-63
2024/03/18 05:17:10;;;;;;;19.08;10.27;;;;;;;11.77;71.66;99904.06;5097419;28;20036;-63
2024/03/18 05:19:35;;;;;;;13.30;8.60;;;;;;;11.84;71.80;99913.06;5097185;28;20055;-63
2024/03/18 05:22:01;;;;;;;14.07;8.50;;;;;;;11.91;71.17;99910.56;5099059;28;20036;-65
2024/03/18 05:24:26;;;;;;;16.27;9.35;;;;;;;11.93;71.58;99905.94;5098972;28;20030;-64
2024/03/18 05:26:52;;;;;;;13.18;8.68;;;;;;;12.00;71.40;99909.56;5099240;28;20043;-62
2024/03/18 05:29:17;;;;;;;11.63;8.32;;;;;;;11.68;72.51;99908.56;5094793;28;20780;-63
2024/03/18 05:31:45;;;;;;;12.80;9.40;;;;;;;11.52;73.25;99906.72;5097797;28;20044;-63
2024/03/18 05:34:11;;;;;;;10.80;7.60;;;;;;;11.65;72.49;99905.41;5098047;28;20040;-65
2024/03/18 05:36:36;;;;;;;10.20;7.55;;;;;;;11.55;72.66;99894.13;5097956;28;20109;-65
2024/03/18 05:39:03;;;;;;;8.57;6.68;;;;;;;11.74;71.07;99907.88;5099741;28;20055;-63
2024/03/18 05:41:29;;;;;;;12.05;6.70;;;;;;;11.87;71.09;99904.78;5097928;28;20414;-63
2024/03/18 05:43:54;;;;;;;9.07;5.97;;;;;;;12.01;69.64;99904.09;5097892;28;20361;-63
2024/03/18 05:46:21;;;;;;;8.70;5.95;;;;;;;12.00;69.12;99907.75;5098013;28;20036;-63
2024/03/18 05:48:47;;;;;;;10.85;6.40;;;;;;;12.27;68.77;99911.88;5099328;28;20275;-63
2024/03/18 05:51:13;;;;;;;9.80;5.90;;;;;;;12.42;67.53;99906.69;5090211;28;20040;-64
2024/03/18 05:53:38;;;;;;;9.10;5.93;;;;;;;12.68;66.15;99907.28;5098760;28;20195;-63
2024/03/18 05:56:05;;;;;;;10.07;5.18;;;;;;;12.80;65.24;99910.41;5097633;28;20203;-65
2024/03/18 05:58:31;;;;;;;7.20;4.63;;;;;;;12.93;63.43;99899.22;5098282;28;20104;-65
2024/03/18 06:00:56;;;;;;;7.72;5.03;;;;;;;13.09;61.21;99899.13;5091195;28;20393;-63
2024/03/18 06:03:22;;;;;;;6.22;4.43;;;;;;;13.20;61.22;99897.94;5095944;28;20028;-64
2024/03/18 06:05:48;;;;;;;10.20;4.00;;;;;;;13.48;59.10;99895.59;5098297;28;20036;-63
2024/03/18 06:08:14;;;;;;;6.32;3.90;;;;;;;13.65;58.40;99902.50;5096693;28;20043;-66
2024/03/18 06:10:39;;;;;;;5.80;3.65;;;;;;;13.78;57.78;99886.75;5097112;28;20040;-66
2024/03/18 06:13:04;;;;;;;7.13;4.18;;;;;;;13.88;56.74;99886.50;5098047;28;20039;-64
2024/03/18 06:15:30;;;;;;;4.45;3.40;;;;;;;14.19;54.89;99889.03;5098980;28;20339;-63
2024/03/18 06:17:55;;;;;;;4.40;3.10;;;;;;;14.43;53.25;99888.00;5096954;28;20040;-63
2024/03/18 06:20:21;;;;;;;4.78;3.03;;;;;;;14.64;52.33;99883.63;5099013;28;20040;-64
2024/03/18 06:22:47;;;;;;;4.25;3.00;;;;;;;14.73;51.18;99876.34;5095320;28;20047;-63
2024/03/18 06:27:58;;;;;;;3.45;2.42;;;;;;;15.22;50.59;99873.03;5088790;28;20059;-64
2024/03/18 06:30:23;;;;;;;3.83;2.92;;;;;;;15.44;49.79;99872.03;5097954;28;20286;-66
2024/03/18 06:32:49;;;;;;;5.70;3.40;;;;;;;15.54;49.82;99875.19;5097435;28;20040;-66
2024/03/18 06:35:14;;;;;;;5.03;3.47;;;;;;;15.75;49.30;99865.59;5098021;28;20341;-64
2024/03/18 06:37:40;;;;;;;6.38;2.90;;;;;;;15.73;48.73;99865.78;5097386;28;20039;-64
2024/03/18 06:40:18;;;;;;;4.47;3.05;;;;;;;15.73;48.39;99868.44;5112799;27;20939;-64
2024/03/18 06:42:44;;;;;;;4.78;2.40;;;;;;;15.64;47.44;99869.59;5112544;28;20028;-66
2024/03/18 06:45:11;;;;;;;4.90;3.00;;;;;;;15.83;47.73;99870.78;5112358;28;20091;-66
2024/03/18 06:47:37;;;;;;;4.07;2.80;;;;;;;15.95;47.29;99869.25;5112962;28;20457;-64
2024/03/18 06:50:02;;;;;;;3.97;2.78;;;;;;;16.09;46.35;99864.81;5112481;28;20036;-63
2024/03/18 06:52:28;;;;;;;5.07;2.15;;;;;;;16.06;44.19;99866.03;5112498;28;20551;-64
2024/03/18 06:54:54;;;;;;;2.40;2.20;;;;;;;16.03;44.38;99866.44;5112887;28;20028;-63
2024/03/18 06:57:19;;;;;;;2.90;2.70;;;;;;;16.12;43.46;99862.59;5113373;28;20245;-63
2024/03/18 06:59:45;;;;;;;3.97;2.75;;;;;;;16.27;44.36;99859.81;5111189;28;20107;-63
2024/03/18 07:02:11;;;;;;;3.78;2.72;;;;;;;16.00;43.34;99826.75;5112925;28;20463;-63
2024/03/18 07:04:37;;;;;;;3.63;2.25;;;;;;;16.37;43.25;99852.25;5110583;28;20397;-64
2024/03/18 07:07:02;;;;;;;4.97;2.67;;;;;;;16.69;44.10;99850.84;5112946;28;20044;-66
2024/03/18 07:09:28;;;;;;;3.45;2.42;;;;;;;16.45;43.04;99848.59;5111845;28;20035;-66
2024/03/18 07:11:53;;;;;;;4.53;2.70;;;;;;;16.70;42.69;99852.50;5112316;28;20032;-63
2024/03/18 07:14:19;;;;;;;4.38;3.08;;;;;;;16.90;43.14;99845.38;5112268;28;20442;-63
2024/03/18 07:16:44;;;;;;;3.42;2.40;;;;;;;16.83;41.72;99836.50;5112054;28;20404;-64
2024/03/18 07:19:10;;;;;;;4.00;2.40;;;;;;;17.00;41.32;99838.81;5112030;28;20048;-64
2024/03/18 07:21:36;;;;;;;2.95;2.20;;;;;;;17.11;41.04;99840.91;5111825;28;20023;-63
2024/03/18 07:24:02;;;;;;;2.55;2.00;;;;;;;17.34;41.11;99830.66;5112204;28;20154;-64
2024/03/18 07:26:28;;;;;;;3.88;2.20;;;;;;;17.44;40.90;99831.09;5110569;28;20032;-66
2024/03/18 07:28:54;;;;;;;5.25;2.25;;;;;;;17.45;41.10;99837.25;5111733;28;20314;-63
2024/03/18 07:31:19;;;;;;;4.35;2.10;;;;;;;17.57;40.35;99830.28;5111432;28;20035;-63
2024/03/18 07:33:45;;;;;;;2.53;1.80;;;;;;;17.69;40.02;99826.03;5112801;28;20036;-63
2024/03/18 07:36:11;;;;;;;3.17;2.28;;;;;;;17.88;40.14;99824.34;5110104;28;20042;-63
2024/03/18 07:38:36;;;;;;;2.83;2.30;;;;;;;18.06;40.05;99823.72;5112187;28;20063;-64
2024/03/18 07:41:02;;;;;;;5.00;2.45;;;;;;;17.84;40.09;99818.59;5110765;28;20051;-63
2024/03/18 07:43:27;;;;;;;2.95;2.08;;;;;;;17.93;39.83;99816.53;5112121;28;20035;-63
2024/03/18 07:45:53;;;;;;;3.20;2.15;;;;;;;18.06;39.57;99816.50;5111752;28;20024;-64
2024/03/18 07:48:18;;;;;;;3.28;1.80;;;;;;;18.14;38.16;99813.59;5113166;28;20340;-64
2024/03/18 07:50:43;;;;;;;4.03;2.03;;;;;;;17.85;38.51;99806.84;5103932;28;20031;-64
2024/03/18 07:53:11;;;;;;;3.58;1.92;;;;;;;18.07;39.56;99806.59;5098888;28;20227;-64
2024/03/18 07:55:36;;;;;;;4.13;2.20;;;;;;;18.22;38.60;99807.19;5097643;28;20058;-64
2024/03/18 07:58:02;;;;;;;11.63;2.35;;;;;;;18.25;37.44;99797.91;5098263;28;20043;-64
2024/03/18 08:00:27;;;;;;;5.80;2.30;;;;;;;17.98;37.72;99794.47;5098122;28;20228;-65
2024/03/18 08:02:53;;;;;;;5.55;2.08;;;;;;;18.31;38.63;99803.25;5098178;28;20039;-64
2024/03/18 08:05:18;;;;;;;3.30;1.85;;;;;;;18.51;38.11;99795.16;5098721;28;20049;-64
2024/03/18 08:07:44;;;;;;;3.30;1.90;;;;;;;18.49;36.87;99795.34;5098593;28;20028;-63
2024/03/18 08:10:09;;;;;;;2.25;1.52;;;;;;;18.69;37.54;99795.31;5099167;28;20040;-64
2024/03/18 08:12:35;;;;;;;1.98;1.20;;;;;;;18.78;36.69;99796.72;5096608;28;20040;-64
2024/03/18 08:15:00;;;;;;;1.70;1.60;;;;;;;18.89;36.76;99786.38;5099728;28;20035;-64
2024/03/18 08:17:26;;;;;;;2.60;1.50;;;;;;;19.01;36.88;99782.78;5098370;28;20028;-64
2024/03/18 08:19:51;;;;;;;5.13;1.70;;;;;;;18.90;37.07;99793.38;5098937;28;20101;-64
2024/03/18 08:22:17;;;;;;;3.28;1.95;;;;;;;18.49;36.70;99787.31;5096529;28;20131;-63
2024/03/18 08:24:43;;;;;;;3.03;1.33;;;;;;;18.66;37.09;99776.13;5098576;28;20039;-64
2024/03/18 08:27:09;;;;;;;3.20;3.00;;;;;;;18.84;37.14;99784.31;5098688;28;20036;-64
2024/03/18 08:29:35;;;;;;;4.07;1.50;;;;;;;18.98;36.69;99774.34;5098392;28;20365;-63
2024/03/18 08:32:00;;;;;;;3.60;1.60;;;;;;;18.90;35.95;99771.91;5097039;28;20418;-64
2024/03/18 08:34:26;;;;;;;1.88;1.77;;;;;;;18.98;36.49;99779.69;5098095;28;20103;-66
2024/03/18 08:36:51;;;;;;;2.47;1.73;;;;;;;18.94;35.65;99773.13;5090912;28;20032;-63
2024/03/18 08:39:18;;;;;;;3.15;1.40;;;;;;;18.88;35.84;99769.44;5090634;28;20063;-64
2024/03/18 08:41:45;;;;;;;4.90;1.30;;;;;;;19.09;36.05;99765.59;5098027;28;20274;-64
2024/03/18 08:44:10;;;;;;;3.83;1.20;;;;;;;19.11;35.08;99772.41;5097471;28;20161;-64
2024/03/18 08:46:35;;;;;;;6.55;1.13;;;;;;;19.13;34.81;99764.13;5096427;28;20190;-64
2024/03/18 08:49:01;;;;;;;2.65;1.42;;;;;;;19.21;35.19;99763.03;5098713;28;20462;-64
2024/03/18 08:51:26;;;;;;;3.38;1.83;;;;;;;19.30;34.61;99761.72;5097691;28;20085;-64
2024/03/18 08:53:52;;;;;;;5.03;2.20;;;;;;;19.29;35.23;99752.03;5098692;28;20050;-63
2024/03/18 08:56:17;;;;;;;1.48;1.38;;;;;;;19.20;34.77;99751.47;5097445;28;20055;-64
2024/03/18 08:58:43;;;;;;;2.92;1.70;;;;;;;19.40;35.80;99746.78;5099175;28;20100;-64
2024/03/18 09:01:08;;;;;;;2.55;1.40;;;;;;;19.51;35.14;99747.91;5096959;28;20032;-64
2024/03/18 09:03:37;;;;;;;3.22;1.63;;;;;;;19.55;34.52;99732.22;5098501;28;20385;-64
2024/03/18 09:06:03;;;;;;;3.03;1.83;;;;;;;19.65;35.81;99736.06;5095787;28;20035;-63
2024/03/18 09:08:29;;;;;;;3.25;2.53;;;;;;;19.54;35.43;99723.34;5098454;28;20055;-65
2024/03/18 09:10:54;;;;;;;1.55;1.45;;;;;;;19.35;36.30;99724.31;5095883;28;20039;-64
2024/03/18 09:13:20;;;;;;;4.65;1.63;;;;;;;19.36;35.43;99723.28;5097905;28;20048;-64
2024/03/18 09:15:45;;;;;;;2.85;1.25;;;;;;;19.49;35.52;99717.78;5096844;28;21005;-64
2024/03/18 09:18:11;;;;;;;2.97;1.45;;;;;;;19.55;36.23;99722.31;5097619;28;20073;-64
2024/03/18 09:20:39;;;;;;;3.08;2.00;;;;;;;19.53;36.15;99715.50;5097005;28;20028;-64
2024/03/18 09:23:07;;;;;;;2.78;1.60;;;;;;;19.26;36.41;99707.66;5097385;28;20036;-64
2024/03/18 09:25:33;;;;;;;2.70;1.80;;;;;;;19.47;36.42;99706.44;5097006;28;20047;-64
2024/03/18 09:27:58;;;;;;;27.92;4.60;;;;;;;19.66;35.95;99699.25;5095306;28;20402;-64
2024/03/18 09:30:24;;;;;;;2.95;1.83;;;;;;;19.75;35.99;99698.75;5097155;28;20050;-64
2024/03/18 09:32:50;;;;;;;2.35;1.70;;;;;;;19.72;36.03;99687.63;5095579;28;20035;-63
2024/03/18 09:35:15;;;;;;;1.98;1.50;;;;;;;19.83;35.86;99686.09;5097711;28;20036;-64
2024/03/18 09:37:41;;;;;;;3.25;1.55;;;;;;;19.84;35.90;99680.50;5095239;28;20028;-64
2024/03/18 09:40:07;;;;;;;1.63;1.50;;;;;;;19.72;35.87;99666.13;5097561;28;20052;-65
2024/03/18 09:42:35;;;;;;;1.80;1.30;;;;;;;19.54;34.75;99682.22;5095507;28;20032;-65
2024/03/18 09:45:01;;;;;;;1.23;1.10;;;;;;;19.42;36.00;99674.06;5098223;28;20063;-66
2024/03/18 09:47:27;;;;;;;1.60;1.48;;;;;;;19.41;35.95;99659.81;5096094;28;20035;-64
2024/03/18 09:49:53;;;;;;;3.38;1.17;;;;;;;19.49;36.33;99669.44;5097080;28;20372;-64
2024/03/18 09:52:20;;;;;;;1.63;1.08;;;;;;;19.57;36.21;99660.31;5095424;28;20313;-64
2024/03/18 09:54:47;;;;;;;2.72;1.42;;;;;;;19.63;35.97;99654.88;5096657;28;20614;-66
2024/03/18 09:57:26;;;;;;;5.70;1.67;;;;;;;19.59;36.00;99653.66;5096237;28;20069;-63
2024/03/18 09:59:51;;;;;;;3.85;1.50;;;;;;;19.67;36.88;99650.69;5096529;28;20052;-64
2024/03/18 10:02:17;;;;;;;2.17;1.08;;;;;;;19.68;36.17;99649.66;5096614;28;20035;-63
2024/03/18 10:04:46;;;;;;;1.52;1.10;;;;;;;19.67;37.16;99655.25;5096521;28;20032;-64
2024/03/18 10:07:14;;;;;;;2.35;1.02;;;;;;;19.69;35.58;99651.28;5096230;28;20039;-64
2024/03/18 10:09:41;;;;;;;1.27;1.17;;;;;;;19.67;36.37;99652.56;5096316;28;20046;-64
2024/03/18 10:12:15;;;;;;;2.25;1.38;;;;;;;19.70;35.27;99644.06;5096103;28;20108;-64
2024/03/18 10:14:41;;;;;;;1.50;0.95;;;;;;;19.65;35.54;99638.53;5096418;28;20039;-64
2024/03/18 10:17:14;;;;;;;1.65;1.02;;;;;;;19.59;34.55;99631.38;5097310;28;20108;-64
2024/03/18 10:19:40;;;;;;;1.70;1.33;;;;;;;19.46;35.36;99626.91;5095791;28;20092;-66
2024/03/18 10:22:10;;;;;;;1.48;1.10;;;;;;;19.50;35.16;99638.84;5094612;28;20330;-64
2024/03/18 10:24:39;;;;;;;1.85;1.63;;;;;;;19.59;34.08;99640.25;5094820;28;20036;-64
2024/03/18 10:27:04;;;;;;;1.23;1.00;;;;;;;19.68;34.29;99628.16;5096608;28;20256;-64
2024/03/18 10:29:30;;;;;;;1.55;1.45;;;;;;;19.76;32.94;99622.47;5096695;28;20073;-64
2024/03/18 10:31:56;;;;;;;2.10;1.90;;;;;;;19.55;34.32;99614.06;5096776;28;20027;-64
2024/03/18 10:34:23;;;;;;;1.98;1.77;;;;;;;19.60;33.97;99614.19;5096559;28;20218;-64
2024/03/18 10:36:59;;;;;;;1.60;1.13;;;;;;;19.67;35.33;99613.09;5096827;28;20035;-65
2024/03/18 10:39:48;;;;;;;1.25;0.98;;;;;;;19.73;35.10;99601.44;5095002;28;20074;-64
2024/03/18 10:42:18;;;;;;;1.13;1.08;;;;;;;19.73;34.82;99596.06;5096083;28;20135;-66
2024/03/18 10:45:12;;;;;;;1.45;1.10;;;;;;;19.84;34.18;99591.00;5096274;28;20379;-64
2024/03/18 10:47:38;;;;;;;4.00;1.17;;;;;;;19.89;34.10;99583.91;5093350;28;20052;-63
2024/03/18 10:50:03;;;;;;;1.15;1.05;;;;;;;19.87;33.65;99572.56;5096990;28;20051;-64
2024/03/18 10:52:30;;;;;;;2.20;1.08;;;;;;;19.90;33.45;99574.81;5095541;28;20032;-63
2024/03/18 10:54:57;;;;;;;2.70;1.40;;;;;;;19.86;34.23;99570.94;5095633;28;20720;-64
2024/03/18 10:57:25;;;;;;;0.90;0.80;;;;;;;19.94;34.00;99561.75;5096455;28;20240;-64
2024/03/18 10:59:51;;;;;;;1.45;1.20;;;;;;;19.97;33.12;99555.91;5095015;28;20036;-66
2024/03/18 11:02:26;;;;;;;1.27;1.10;;;;;;;19.77;33.55;99551.63;5096362;28;20318;-66
2024/03/18 11:04:56;;;;;;;1.90;0.93;;;;;;;19.80;34.45;99546.84;5094972;28;20047;-64
2024/03/18 11:07:29;;;;;;;1.88;1.20;;;;;;;19.92;34.52;99545.03;5096879;28;20036;-64
2024/03/18 11:10:11;;;;;;;1.10;1.10;;;;;;;19.94;34.32;99535.69;5095708;28;20277;-64
2024/03/18 11:12:37;;;;;;;4.05;2.47;;;;;;;20.05;34.76;99542.16;5096399;28;20457;-64
2024/03/18 11:15:07;;;;;;;2.42;0.85;;;;;;;20.18;33.06;99539.28;5095725;28;20363;-64
2024/03/18 11:17:43;;;;;;;2.05;0.93;;;;;;;20.15;32.18;99534.34;5096708;28;20059;-64
2024/03/18 11:20:19;;;;;;;2.30;1.08;;;;;;;20.10;32.31;99526.16;5095829;28;20035;-64
2024/03/18 11:23:08;;;;;;;1.85;1.00;;;;;;;20.15;31.78;99517.41;5096885;28;20032;-64
2024/03/18 11:25:37;;;;;;;1.80;1.45;;;;;;;19.89;32.19;99508.69;5095761;28;20040;-64
2024/03/18 11:28:04;;;;;;;1.13;1.02;;;;;;;19.78;33.26;99506.75;5099657;28;20032;-66
2024/03/18 11:30:33;;;;;;;1.48;1.20;;;;;;;19.80;33.35;99503.84;5098273;28;20032;-64
2024/03/18 11:33:09;;;;;;;1.50;1.17;;;;;;;19.72;33.38;99504.97;5099619;28;20039;-64